createdAt,value
2017-09-30T00:00:32.218Z,1015.9
2017-09-30T00:01:33.975Z,1015.9
2017-09-30T00:02:35.853Z,1016.0
2017-09-30T00:03:37.606Z,1016.1
2017-09-30T00:04:39.409Z,1016.1
2017-09-30T00:05:41.200Z,1016.1
2017-09-30T00:06:42.971Z,1016.1
2017-09-30T00:07:44.798Z,1016.1
2017-09-30T00:08:46.585Z,1016.1
2017-09-30T00:09:48.368Z,1016.0
2017-09-30T00:10:50.119Z,1016.0
2017-09-30T00:11:51.839Z,1016.0
2017-09-30T00:12:53.641Z,1016.0
2017-09-30T00:13:55.386Z,1016.0
2017-09-30T00:14:57.269Z,1016.0
2017-09-30T00:15:59.000Z,1016.0
2017-09-30T00:17:00.750Z,1016.1
2017-09-30T00:18:02.629Z,1016.1
2017-09-30T00:19:04.376Z,1016.1
2017-09-30T00:20:06.279Z,1016.2
2017-09-30T00:21:08.133Z,1016.2
2017-09-30T00:22:09.926Z,1016.3
2017-09-30T00:23:11.765Z,1016.3
2017-09-30T00:24:13.778Z,1016.2
2017-09-30T00:25:15.545Z,1016.2
2017-09-30T00:26:17.279Z,1016.2
2017-09-30T00:27:18.890Z,1016.1
2017-09-30T00:28:20.772Z,1016.1
2017-09-30T00:29:22.578Z,1016.1
2017-09-30T00:30:24.410Z,1016.2
2017-09-30T00:31:26.182Z,1016.2
2017-09-30T00:32:27.869Z,1016.3
2017-09-30T00:33:29.586Z,1016.3
2017-09-30T00:34:31.338Z,1016.4
2017-09-30T00:35:33.210Z,1016.4
2017-09-30T00:36:35.173Z,1016.4
2017-09-30T00:37:37.168Z,1016.4
2017-09-30T00:38:39.359Z,1016.5
2017-09-30T00:39:41.478Z,1016.4
2017-09-30T00:40:43.602Z,1016.5
2017-09-30T00:41:45.616Z,1016.5
2017-09-30T00:42:47.349Z,1016.5
2017-09-30T00:43:49.049Z,1016.4
2017-09-30T00:44:50.979Z,1016.4
2017-09-30T00:45:52.669Z,1016.5
2017-09-30T00:46:54.328Z,1016.5
2017-09-30T00:47:55.953Z,1016.6
2017-09-30T00:48:57.692Z,1016.5
2017-09-30T00:49:59.324Z,1016.5
2017-09-30T00:51:01.042Z,1016.5
2017-09-30T00:52:02.937Z,1016.4
2017-09-30T00:53:04.645Z,1016.4
2017-09-30T00:54:06.316Z,1016.4
2017-09-30T00:55:08.108Z,1016.4
2017-09-30T00:56:09.882Z,1016.3
2017-09-30T00:57:11.561Z,1016.3
2017-09-30T00:58:13.175Z,1016.4
2017-09-30T00:59:15.006Z,1016.4
2017-09-30T01:00:16.634Z,1016.4
2017-09-30T01:01:18.436Z,1016.4
2017-09-30T01:02:20.101Z,1016.3
2017-09-30T01:03:21.747Z,1016.4
2017-09-30T01:04:23.352Z,1016.4
2017-09-30T01:05:24.997Z,1016.4
2017-09-30T01:06:26.652Z,1016.4
2017-09-30T01:07:28.385Z,1016.4
2017-09-30T01:08:29.982Z,1016.4
2017-09-30T01:09:31.585Z,1016.3
2017-09-30T01:10:33.256Z,1016.3
2017-09-30T01:11:34.911Z,1016.4
2017-09-30T01:12:36.674Z,1016.3
2017-09-30T01:13:38.303Z,1016.4
2017-09-30T01:14:40.001Z,1016.2
2017-09-30T01:15:41.630Z,1016.2
2017-09-30T01:16:43.307Z,1016.1
2017-09-30T01:17:44.953Z,1016.1
2017-09-30T01:18:46.635Z,1016.0
2017-09-30T01:19:48.300Z,1016.1
2017-09-30T01:20:49.966Z,1016.1
2017-09-30T01:21:51.525Z,1016.2
2017-09-30T01:22:53.129Z,1016.2
2017-09-30T01:23:54.759Z,1016.2
2017-09-30T01:24:56.413Z,1016.2
2017-09-30T01:25:58.022Z,1016.2
2017-09-30T01:26:59.627Z,1016.1
2017-09-30T01:28:01.295Z,1016.1
2017-09-30T01:29:02.943Z,1016.2
2017-09-30T01:30:04.594Z,1016.2
2017-09-30T01:31:06.218Z,1016.2
2017-09-30T01:32:07.893Z,1016.2
2017-09-30T01:33:09.510Z,1016.2
2017-09-30T01:34:11.188Z,1016.2
2017-09-30T01:35:12.954Z,1016.2
2017-09-30T01:36:14.681Z,1016.2
2017-09-30T01:37:16.297Z,1016.2
2017-09-30T01:38:17.949Z,1016.2
2017-09-30T01:39:19.570Z,1016.3
2017-09-30T01:40:21.184Z,1016.2
2017-09-30T01:41:22.788Z,1016.2
2017-09-30T01:42:24.434Z,1016.2
2017-09-30T01:43:26.116Z,1016.1
2017-09-30T01:44:27.822Z,1016.1
2017-09-30T01:45:29.491Z,1016.2
2017-09-30T01:46:31.164Z,1016.2
2017-09-30T01:47:32.873Z,1016.2
2017-09-30T01:48:34.527Z,1016.2
2017-09-30T01:49:36.283Z,1016.2
2017-09-30T01:50:37.872Z,1016.1
2017-09-30T01:51:39.579Z,1016.0
2017-09-30T01:52:41.229Z,1015.9
2017-09-30T01:53:42.864Z,1015.9
2017-09-30T01:54:44.503Z,1015.9
2017-09-30T01:55:46.163Z,1016.0
2017-09-30T01:56:47.842Z,1016.0
2017-09-30T01:57:49.439Z,1016.1
2017-09-30T01:58:51.215Z,1016.0
2017-09-30T01:59:52.918Z,1016.1
2017-09-30T02:00:54.491Z,1016.1
2017-09-30T02:01:56.124Z,1016.1
2017-09-30T02:02:57.780Z,1016.1
2017-09-30T02:03:59.431Z,1016.1
2017-09-30T02:05:01.023Z,1016.2
2017-09-30T02:06:02.650Z,1016.1
2017-09-30T02:07:04.355Z,1016.1
2017-09-30T02:08:06.178Z,1016.1
2017-09-30T02:09:07.764Z,1016.1
2017-09-30T02:10:09.477Z,1016.1
2017-09-30T02:11:11.149Z,1016.1
2017-09-30T02:12:12.728Z,1016.1
2017-09-30T02:13:14.326Z,1016.1
2017-09-30T02:14:16.071Z,1016.1
2017-09-30T02:15:17.795Z,1016.1
2017-09-30T02:16:19.452Z,1016.0
2017-09-30T02:17:21.068Z,1016.0
2017-09-30T02:18:22.791Z,1016.0
2017-09-30T02:19:24.408Z,1016.0
2017-09-30T02:20:26.021Z,1016.0
2017-09-30T02:21:27.599Z,1016.0
2017-09-30T02:22:29.266Z,1016.0
2017-09-30T02:23:30.908Z,1016.0
2017-09-30T02:24:32.582Z,1016.0
2017-09-30T02:25:34.208Z,1016.0
2017-09-30T02:26:35.823Z,1015.9
2017-09-30T02:27:37.474Z,1016.0
2017-09-30T02:28:39.160Z,1015.9
2017-09-30T02:29:40.899Z,1015.9
2017-09-30T02:30:42.551Z,1015.9
2017-09-30T02:31:44.182Z,1015.9
2017-09-30T02:32:45.810Z,1015.8
2017-09-30T02:33:47.461Z,1015.8
2017-09-30T02:34:49.100Z,1015.8
2017-09-30T02:35:50.680Z,1015.8
2017-09-30T02:36:52.311Z,1015.8
2017-09-30T02:37:53.927Z,1015.8
2017-09-30T02:38:55.519Z,1015.8
2017-09-30T02:39:57.130Z,1015.8
2017-09-30T02:40:58.826Z,1015.7
2017-09-30T02:42:00.451Z,1015.7
2017-09-30T02:43:02.014Z,1015.7
2017-09-30T02:44:03.648Z,1015.7
2017-09-30T02:45:05.285Z,1015.7
2017-09-30T02:46:06.902Z,1015.6
2017-09-30T02:47:08.548Z,1015.6
2017-09-30T02:48:10.256Z,1015.7
2017-09-30T02:49:11.862Z,1015.7
2017-09-30T02:50:13.454Z,1015.6
2017-09-30T02:51:15.075Z,1015.6
2017-09-30T02:52:16.759Z,1015.6
2017-09-30T02:53:18.330Z,1015.6
2017-09-30T02:54:19.948Z,1015.6
2017-09-30T02:55:21.544Z,1015.6
2017-09-30T02:56:23.366Z,1015.5
2017-09-30T02:57:25.043Z,1015.5
2017-09-30T02:58:26.747Z,1015.4
2017-09-30T02:59:28.479Z,1015.4
2017-09-30T03:00:30.106Z,1015.4
2017-09-30T03:01:31.736Z,1015.4
2017-09-30T03:02:33.627Z,1015.3
2017-09-30T03:03:35.273Z,1015.4
2017-09-30T03:04:37.062Z,1015.4
2017-09-30T03:05:38.740Z,1015.3
2017-09-30T03:06:40.403Z,1015.3
2017-09-30T03:07:41.970Z,1015.3
2017-09-30T03:08:43.629Z,1015.2
2017-09-30T03:09:45.272Z,1015.2
2017-09-30T03:10:46.936Z,1015.2
2017-09-30T03:11:48.547Z,1015.2
2017-09-30T03:12:50.147Z,1015.2
2017-09-30T03:13:51.794Z,1015.2
2017-09-30T03:14:53.482Z,1015.2
2017-09-30T03:15:55.121Z,1015.2
2017-09-30T03:16:56.829Z,1015.2
2017-09-30T03:17:58.417Z,1015.2
2017-09-30T03:19:00.078Z,1015.1
2017-09-30T03:20:01.754Z,1015.0
2017-09-30T03:21:03.367Z,1015.1
2017-09-30T03:22:05.025Z,1015.0
2017-09-30T03:23:06.677Z,1014.9
2017-09-30T03:24:08.274Z,1014.9
2017-09-30T03:25:10.030Z,1014.9
2017-09-30T03:26:11.654Z,1014.8
2017-09-30T03:27:13.248Z,1014.9
2017-09-30T03:28:14.986Z,1014.9
2017-09-30T03:29:16.582Z,1014.8
2017-09-30T03:30:18.145Z,1014.8
2017-09-30T03:31:19.858Z,1014.8
2017-09-30T03:32:21.505Z,1014.7
2017-09-30T03:33:23.140Z,1014.7
2017-09-30T03:34:24.706Z,1014.7
2017-09-30T03:35:26.384Z,1014.7
2017-09-30T03:36:28.040Z,1014.7
2017-09-30T03:37:29.633Z,1014.7
2017-09-30T03:38:31.337Z,1014.7
2017-09-30T03:39:32.928Z,1014.7
2017-09-30T03:40:34.550Z,1014.6
2017-09-30T03:41:36.197Z,1014.6
2017-09-30T03:42:37.885Z,1014.5
2017-09-30T03:43:39.682Z,1014.6
2017-09-30T03:44:41.337Z,1014.6
2017-09-30T03:45:42.997Z,1014.5
2017-09-30T03:46:44.595Z,1014.5
2017-09-30T03:47:46.433Z,1014.5
2017-09-30T03:48:48.113Z,1014.5
2017-09-30T03:49:49.842Z,1014.5
2017-09-30T03:50:51.762Z,1014.6
2017-09-30T03:51:53.375Z,1014.6
2017-09-30T03:52:55.000Z,1014.6
2017-09-30T03:53:56.662Z,1014.6
2017-09-30T03:54:58.288Z,1014.6
2017-09-30T03:56:00.018Z,1014.7
2017-09-30T03:57:01.630Z,1014.6
2017-09-30T03:58:03.267Z,1014.7
2017-09-30T03:59:04.953Z,1014.7
2017-09-30T04:00:06.620Z,1014.7
2017-09-30T04:01:08.283Z,1014.7
2017-09-30T04:02:09.950Z,1014.7
2017-09-30T04:03:11.818Z,1014.7
2017-09-30T04:04:13.732Z,1014.6
2017-09-30T04:05:15.427Z,1014.6
2017-09-30T04:06:17.222Z,1014.6
2017-09-30T04:07:18.888Z,1014.5
2017-09-30T04:08:20.507Z,1014.6
2017-09-30T04:09:22.220Z,1014.7
2017-09-30T04:10:24.003Z,1014.7
2017-09-30T04:11:25.895Z,1014.6
2017-09-30T04:12:27.826Z,1014.7
2017-09-30T04:13:29.516Z,1014.6
2017-09-30T04:14:31.125Z,1014.6
2017-09-30T04:15:32.783Z,1014.7
2017-09-30T04:16:34.545Z,1014.7
2017-09-30T04:17:36.387Z,1014.6
2017-09-30T04:18:38.315Z,1014.7
2017-09-30T04:19:40.258Z,1014.6
2017-09-30T04:20:42.231Z,1014.6
2017-09-30T04:21:44.113Z,1014.6
2017-09-30T04:22:46.126Z,1014.7
2017-09-30T04:23:48.108Z,1014.6
2017-09-30T04:24:50.183Z,1014.6
2017-09-30T04:25:52.161Z,1014.6
2017-09-30T04:26:54.132Z,1014.6
2017-09-30T04:27:56.075Z,1014.6
2017-09-30T04:28:58.026Z,1014.6
2017-09-30T04:29:59.965Z,1014.6
2017-09-30T04:31:01.900Z,1014.6
2017-09-30T04:32:03.892Z,1014.6
2017-09-30T04:33:05.905Z,1014.7
2017-09-30T04:34:07.861Z,1014.7
2017-09-30T04:35:09.789Z,1014.7
2017-09-30T04:36:11.806Z,1014.7
2017-09-30T04:37:13.766Z,1014.7
2017-09-30T04:38:15.733Z,1014.7
2017-09-30T04:39:17.539Z,1014.7
2017-09-30T04:40:19.583Z,1014.7
2017-09-30T04:41:21.551Z,1014.7
2017-09-30T04:42:23.545Z,1014.7
2017-09-30T04:43:25.477Z,1014.7
2017-09-30T04:44:27.449Z,1014.7
2017-09-30T04:45:29.407Z,1014.7
2017-09-30T04:46:31.446Z,1014.7
2017-09-30T04:47:33.490Z,1014.8
2017-09-30T04:48:35.471Z,1014.8
2017-09-30T04:49:37.464Z,1014.7
2017-09-30T04:50:39.422Z,1014.7
2017-09-30T04:51:41.432Z,1014.7
2017-09-30T04:52:43.439Z,1014.8
2017-09-30T04:53:45.410Z,1014.8
2017-09-30T04:54:47.479Z,1014.7
2017-09-30T04:55:49.497Z,1014.7
2017-09-30T04:56:51.479Z,1014.7
2017-09-30T04:57:53.440Z,1014.7
2017-09-30T04:58:55.435Z,1014.7
2017-09-30T04:59:57.415Z,1014.7
2017-09-30T05:00:59.450Z,1014.7
2017-09-30T05:02:01.438Z,1014.6
2017-09-30T05:03:03.377Z,1014.6
2017-09-30T05:04:05.342Z,1014.7
2017-09-30T05:05:07.301Z,1014.7
2017-09-30T05:06:09.256Z,1014.8
2017-09-30T05:07:11.217Z,1014.8
2017-09-30T05:08:13.179Z,1014.8
2017-09-30T05:09:15.212Z,1014.8
2017-09-30T05:10:17.134Z,1014.8
2017-09-30T05:11:19.106Z,1014.9
2017-09-30T05:12:21.087Z,1014.9
2017-09-30T05:13:23.085Z,1014.8
2017-09-30T05:14:25.070Z,1014.8
2017-09-30T05:15:27.084Z,1014.8
2017-09-30T05:16:29.141Z,1014.8
2017-09-30T05:17:31.122Z,1014.8
2017-09-30T05:18:33.096Z,1014.8
2017-09-30T05:19:35.065Z,1014.8
2017-09-30T05:20:37.022Z,1014.7
2017-09-30T05:21:38.994Z,1014.7
2017-09-30T05:22:40.985Z,1014.7
2017-09-30T05:23:42.945Z,1014.6
2017-09-30T05:24:44.834Z,1014.6
2017-09-30T05:25:46.831Z,1014.7
2017-09-30T05:26:48.805Z,1014.6
2017-09-30T05:27:50.708Z,1014.6
2017-09-30T05:28:52.658Z,1014.6
2017-09-30T05:29:54.585Z,1014.6
2017-09-30T05:30:56.525Z,1014.6
2017-09-30T05:31:58.493Z,1014.7
2017-09-30T05:33:00.470Z,1014.7
2017-09-30T05:34:02.413Z,1014.7
2017-09-30T05:35:04.443Z,1014.7
2017-09-30T05:36:06.475Z,1014.7
2017-09-30T05:37:08.476Z,1014.7
2017-09-30T05:38:10.429Z,1014.7
2017-09-30T05:39:12.401Z,1014.7
2017-09-30T05:40:14.303Z,1014.7
2017-09-30T05:41:16.287Z,1014.7
2017-09-30T05:42:17.900Z,1014.7
2017-09-30T05:43:19.465Z,1014.7
2017-09-30T05:44:21.166Z,1014.8
2017-09-30T05:45:23.135Z,1014.7
2017-09-30T05:46:25.142Z,1014.7
2017-09-30T05:47:27.051Z,1014.7
2017-09-30T05:48:29.038Z,1014.6
2017-09-30T05:49:30.940Z,1014.7
2017-09-30T05:50:32.949Z,1014.6
2017-09-30T05:51:35.040Z,1014.6
2017-09-30T05:52:36.990Z,1014.6
2017-09-30T05:53:38.954Z,1014.6
2017-09-30T05:54:40.961Z,1014.6
2017-09-30T05:55:43.010Z,1014.6
2017-09-30T05:56:44.948Z,1014.7
2017-09-30T05:57:46.959Z,1014.6
2017-09-30T05:59:28.424Z,1014.7
2017-09-30T06:00:30.239Z,1014.8
2017-09-30T06:01:31.934Z,1014.8
2017-09-30T06:03:13.101Z,1014.8
2017-09-30T06:04:14.679Z,1014.8
2017-09-30T06:05:56.512Z,1014.8
2017-09-30T06:06:58.270Z,1014.8
2017-09-30T06:08:00.004Z,1014.8
2017-09-30T06:09:41.065Z,1014.9
2017-09-30T06:11:23.173Z,1014.9
2017-09-30T06:13:04.233Z,1014.9
2017-09-30T06:14:05.787Z,1014.9
2017-09-30T06:15:46.762Z,1014.8
2017-09-30T06:17:27.794Z,1014.9
2017-09-30T06:19:08.968Z,1014.9
2017-09-30T06:20:10.708Z,1014.8
2017-09-30T06:21:51.899Z,1014.8
2017-09-30T06:23:32.953Z,1014.8
2017-09-30T06:25:13.965Z,1014.8
2017-09-30T06:26:55.010Z,1014.7
2017-09-30T06:28:36.037Z,1014.7
2017-09-30T06:30:17.120Z,1014.7
2017-09-30T06:32:00.961Z,1014.7
2017-09-30T06:33:02.504Z,1014.7
2017-09-30T06:34:04.184Z,1014.6
2017-09-30T06:35:06.099Z,1014.6
2017-09-30T06:36:08.019Z,1014.6
2017-09-30T06:37:09.940Z,1014.6
2017-09-30T06:38:11.887Z,1014.6
2017-09-30T06:39:13.847Z,1014.5
2017-09-30T06:40:15.826Z,1014.5
2017-09-30T06:41:17.810Z,1014.5
2017-09-30T06:42:19.907Z,1014.6
2017-09-30T06:43:21.884Z,1014.6
2017-09-30T06:44:23.854Z,1014.6
2017-09-30T06:45:25.767Z,1014.6
2017-09-30T06:46:27.705Z,1014.7
2017-09-30T06:47:29.703Z,1014.7
2017-09-30T06:48:31.681Z,1014.7
2017-09-30T06:49:33.561Z,1014.7
2017-09-30T06:50:35.511Z,1014.7
2017-09-30T06:51:37.479Z,1014.7
2017-09-30T06:52:39.385Z,1014.7
2017-09-30T06:53:41.333Z,1014.7
2017-09-30T06:54:43.342Z,1014.7
2017-09-30T06:55:45.291Z,1014.7
2017-09-30T06:56:47.314Z,1014.7
2017-09-30T06:57:49.252Z,1014.7
2017-09-30T06:58:50.879Z,1014.7
2017-09-30T06:59:52.678Z,1014.7
2017-09-30T07:00:54.648Z,1014.7
2017-09-30T07:01:56.557Z,1014.7
2017-09-30T07:02:58.510Z,1014.7
2017-09-30T07:04:00.500Z,1014.7
2017-09-30T07:05:02.453Z,1014.7
2017-09-30T07:06:04.411Z,1014.6
2017-09-30T07:07:06.364Z,1014.7
2017-09-30T07:08:08.306Z,1014.7
2017-09-30T07:09:09.987Z,1014.6
2017-09-30T07:10:11.597Z,1014.7
2017-09-30T07:11:13.260Z,1014.6
2017-09-30T07:12:14.960Z,1014.6
2017-09-30T07:13:16.557Z,1014.6
2017-09-30T07:14:18.419Z,1014.6
2017-09-30T07:15:20.403Z,1014.6
2017-09-30T07:16:22.395Z,1014.6
2017-09-30T07:17:24.361Z,1014.6
2017-09-30T07:18:26.319Z,1014.6
2017-09-30T07:19:28.319Z,1014.6
2017-09-30T07:20:30.313Z,1014.6
2017-09-30T07:21:32.267Z,1014.6
2017-09-30T07:22:34.199Z,1014.6
2017-09-30T07:23:36.135Z,1014.5
2017-09-30T07:24:38.032Z,1014.6
2017-09-30T07:25:40.036Z,1014.5
2017-09-30T07:26:41.960Z,1014.6
2017-09-30T07:27:43.911Z,1014.6
2017-09-30T07:28:45.886Z,1014.5
2017-09-30T07:29:47.515Z,1014.6
2017-09-30T07:30:49.126Z,1014.6
2017-09-30T07:31:50.675Z,1014.6
2017-09-30T07:32:52.223Z,1014.6
2017-09-30T07:33:53.831Z,1014.6
2017-09-30T07:34:55.287Z,1014.6
2017-09-30T07:35:56.797Z,1014.6
2017-09-30T07:36:58.274Z,1014.6
2017-09-30T07:37:59.793Z,1014.6
2017-09-30T07:39:01.275Z,1014.6
2017-09-30T07:40:02.765Z,1014.6
2017-09-30T07:41:04.238Z,1014.6
2017-09-30T07:42:05.781Z,1014.5
2017-09-30T07:43:07.321Z,1014.5
2017-09-30T07:44:08.876Z,1014.5
2017-09-30T07:45:10.486Z,1014.5
2017-09-30T07:46:12.053Z,1014.5
2017-09-30T07:47:13.561Z,1014.5
2017-09-30T07:48:15.070Z,1014.4
2017-09-30T07:49:16.639Z,1014.4
2017-09-30T07:50:18.210Z,1014.4
2017-09-30T07:51:19.842Z,1014.3
2017-09-30T07:52:21.393Z,1014.4
2017-09-30T07:53:22.954Z,1014.3
2017-09-30T07:54:24.500Z,1014.3
2017-09-30T07:55:26.063Z,1014.3
2017-09-30T07:56:27.601Z,1014.3
2017-09-30T07:57:29.161Z,1014.4
2017-09-30T07:58:30.686Z,1014.4
2017-09-30T07:59:32.209Z,1014.4
2017-09-30T08:00:33.726Z,1014.4
2017-09-30T08:01:35.298Z,1014.4
2017-09-30T08:02:36.869Z,1014.3
2017-09-30T08:03:38.373Z,1014.4
2017-09-30T08:04:39.893Z,1014.4
2017-09-30T08:05:41.450Z,1014.4
2017-09-30T08:06:43.021Z,1014.4
2017-09-30T08:07:44.555Z,1014.4
2017-09-30T08:08:46.061Z,1014.4
2017-09-30T08:09:47.649Z,1014.4
2017-09-30T08:10:49.193Z,1014.4
2017-09-30T08:11:50.723Z,1014.4
2017-09-30T08:12:52.250Z,1014.4
2017-09-30T08:13:53.805Z,1014.4
2017-09-30T08:14:55.362Z,1014.5
2017-09-30T08:15:56.889Z,1014.5
2017-09-30T08:16:58.445Z,1014.5
2017-09-30T08:18:00.015Z,1014.5
2017-09-30T08:19:01.531Z,1014.6
2017-09-30T08:20:03.057Z,1014.5
2017-09-30T08:21:04.601Z,1014.5
2017-09-30T08:22:06.139Z,1014.5
2017-09-30T08:23:07.661Z,1014.5
2017-09-30T08:24:09.206Z,1014.4
2017-09-30T08:25:10.764Z,1014.5
2017-09-30T08:26:12.318Z,1014.5
2017-09-30T08:27:13.813Z,1014.5
2017-09-30T08:28:15.352Z,1014.4
2017-09-30T08:29:16.909Z,1014.4
2017-09-30T08:30:18.427Z,1014.4
2017-09-30T08:31:19.928Z,1014.4
2017-09-30T08:32:21.480Z,1014.4
2017-09-30T08:33:23.038Z,1014.4
2017-09-30T08:34:24.537Z,1014.4
2017-09-30T08:35:26.078Z,1014.4
2017-09-30T08:36:27.622Z,1014.4
2017-09-30T08:37:29.164Z,1014.4
2017-09-30T08:38:30.691Z,1014.4
2017-09-30T08:39:32.219Z,1014.4
2017-09-30T08:40:33.758Z,1014.4
2017-09-30T08:41:35.302Z,1014.4
2017-09-30T08:42:36.825Z,1014.4
2017-09-30T08:43:38.334Z,1014.4
2017-09-30T08:44:39.882Z,1014.3
2017-09-30T08:45:41.427Z,1014.4
2017-09-30T08:46:42.950Z,1014.4
2017-09-30T08:47:44.517Z,1014.3
2017-09-30T08:48:46.061Z,1014.3
2017-09-30T08:49:47.586Z,1014.3
2017-09-30T08:50:49.087Z,1014.3
2017-09-30T08:51:50.651Z,1014.3
2017-09-30T08:52:52.131Z,1014.2
2017-09-30T08:53:53.685Z,1014.2
2017-09-30T08:54:55.246Z,1014.2
2017-09-30T08:55:56.755Z,1014.2
2017-09-30T08:56:58.320Z,1014.2
2017-09-30T08:57:59.903Z,1014.2
2017-09-30T08:59:01.483Z,1014.2
2017-09-30T09:00:03.103Z,1014.2
2017-09-30T09:01:04.673Z,1014.2
2017-09-30T09:02:06.211Z,1014.2
2017-09-30T09:03:07.768Z,1014.2
2017-09-30T09:04:09.392Z,1014.1
2017-09-30T09:05:10.991Z,1014.1
2017-09-30T09:06:12.539Z,1014.1
2017-09-30T09:07:14.094Z,1014.1
2017-09-30T09:08:15.634Z,1014.0
2017-09-30T09:09:17.153Z,1014.0
2017-09-30T09:10:18.692Z,1014.0
2017-09-30T09:11:20.219Z,1013.9
2017-09-30T09:12:21.751Z,1013.9
2017-09-30T09:13:23.283Z,1013.9
2017-09-30T09:14:24.895Z,1013.9
2017-09-30T09:15:26.403Z,1013.9
2017-09-30T09:16:27.933Z,1013.9
2017-09-30T09:17:29.567Z,1013.9
2017-09-30T09:18:31.182Z,1013.9
2017-09-30T09:19:32.651Z,1013.9
2017-09-30T09:20:34.111Z,1013.9
2017-09-30T09:21:35.603Z,1013.9
2017-09-30T09:22:37.064Z,1013.9
2017-09-30T09:23:38.517Z,1013.9
2017-09-30T09:24:40.011Z,1013.9
2017-09-30T09:25:41.527Z,1013.9
2017-09-30T09:26:43.013Z,1013.9
2017-09-30T09:27:44.480Z,1013.8
2017-09-30T09:28:45.999Z,1013.9
2017-09-30T09:29:47.543Z,1013.8
2017-09-30T09:30:49.095Z,1013.9
2017-09-30T09:31:50.669Z,1013.9
2017-09-30T09:32:52.262Z,1013.9
2017-09-30T09:33:53.786Z,1013.9
2017-09-30T09:34:55.368Z,1013.9
2017-09-30T09:35:56.916Z,1013.8
2017-09-30T09:36:58.431Z,1013.8
2017-09-30T09:38:00.012Z,1013.8
2017-09-30T09:39:01.577Z,1013.8
2017-09-30T09:40:03.156Z,1013.8
2017-09-30T09:41:04.678Z,1013.8
2017-09-30T09:42:06.217Z,1013.8
2017-09-30T09:43:07.730Z,1013.8
2017-09-30T09:44:09.299Z,1013.8
2017-09-30T09:45:10.842Z,1013.8
2017-09-30T09:46:12.448Z,1013.7
2017-09-30T09:47:14.009Z,1013.8
2017-09-30T09:48:15.540Z,1013.7
2017-09-30T09:49:17.081Z,1013.7
2017-09-30T09:50:18.612Z,1013.7
2017-09-30T09:51:20.139Z,1013.7
2017-09-30T09:52:21.711Z,1013.7
2017-09-30T09:53:23.215Z,1013.7
2017-09-30T09:54:24.777Z,1013.7
2017-09-30T09:55:26.298Z,1013.7
2017-09-30T09:56:27.848Z,1013.7
2017-09-30T09:57:29.377Z,1013.7
2017-09-30T09:58:30.941Z,1013.7
2017-09-30T09:59:32.468Z,1013.7
2017-09-30T10:00:33.994Z,1013.7
2017-09-30T10:01:35.540Z,1013.7
2017-09-30T10:02:37.142Z,1013.7
2017-09-30T10:03:38.658Z,1013.7
2017-09-30T10:04:40.214Z,1013.7
2017-09-30T10:05:41.772Z,1013.7
2017-09-30T10:06:43.280Z,1013.7
2017-09-30T10:07:44.836Z,1013.8
2017-09-30T10:08:46.396Z,1013.7
2017-09-30T10:09:47.912Z,1013.7
2017-09-30T10:10:49.459Z,1013.8
2017-09-30T10:11:51.056Z,1013.8
2017-09-30T10:12:52.605Z,1013.9
2017-09-30T10:13:54.130Z,1013.9
2017-09-30T10:14:55.677Z,1013.9
2017-09-30T10:15:57.217Z,1013.9
2017-09-30T10:16:58.802Z,1013.9
2017-09-30T10:18:00.341Z,1014.0
2017-09-30T10:19:01.895Z,1013.9
2017-09-30T10:20:03.455Z,1014.0
2017-09-30T10:21:05.000Z,1014.0
2017-09-30T10:22:06.500Z,1014.0
2017-09-30T10:23:08.028Z,1014.0
2017-09-30T10:24:09.618Z,1014.0
2017-09-30T10:25:11.173Z,1014.0
2017-09-30T10:26:12.731Z,1014.1
2017-09-30T10:27:14.275Z,1014.1
2017-09-30T10:28:15.804Z,1014.1
2017-09-30T10:29:17.364Z,1014.2
2017-09-30T10:30:18.915Z,1014.2
2017-09-30T10:31:20.448Z,1014.2
2017-09-30T10:32:21.977Z,1014.3
2017-09-30T10:33:23.483Z,1014.4
2017-09-30T10:34:25.058Z,1014.3
2017-09-30T10:35:26.669Z,1014.4
2017-09-30T10:36:28.223Z,1014.4
2017-09-30T10:37:29.800Z,1014.3
2017-09-30T10:38:31.321Z,1014.3
2017-09-30T10:39:32.856Z,1014.3
2017-09-30T10:40:34.384Z,1014.4
2017-09-30T10:41:35.946Z,1014.4
2017-09-30T10:42:37.537Z,1014.4
2017-09-30T10:43:39.118Z,1014.4
2017-09-30T10:44:40.681Z,1014.5
2017-09-30T10:45:42.240Z,1014.5
2017-09-30T10:46:43.767Z,1014.4
2017-09-30T10:47:45.354Z,1014.5
2017-09-30T10:48:47.033Z,1014.5
2017-09-30T10:49:48.573Z,1014.5
2017-09-30T10:50:50.101Z,1014.5
2017-09-30T10:51:51.654Z,1014.5
2017-09-30T10:52:53.207Z,1014.5
2017-09-30T10:53:54.752Z,1014.5
2017-09-30T10:54:56.317Z,1014.4
2017-09-30T10:55:57.842Z,1014.4
2017-09-30T10:56:59.462Z,1014.5
2017-09-30T10:58:00.999Z,1014.4
2017-09-30T10:59:02.577Z,1014.4
2017-09-30T11:00:04.116Z,1014.4
2017-09-30T11:01:05.732Z,1014.4
2017-09-30T11:02:07.210Z,1014.4
2017-09-30T11:03:08.761Z,1014.4
2017-09-30T11:04:10.308Z,1014.4
2017-09-30T11:05:11.812Z,1014.3
2017-09-30T11:06:13.375Z,1014.4
2017-09-30T11:07:14.948Z,1014.4
2017-09-30T11:08:16.528Z,1014.3
2017-09-30T11:09:18.077Z,1014.4
2017-09-30T11:10:19.617Z,1014.4
2017-09-30T11:11:21.259Z,1014.4
2017-09-30T11:12:22.825Z,1014.4
2017-09-30T11:13:24.367Z,1014.5
2017-09-30T11:14:25.949Z,1014.5
2017-09-30T11:15:27.448Z,1014.4
2017-09-30T11:16:29.015Z,1014.5
2017-09-30T11:17:30.561Z,1014.4
2017-09-30T11:18:32.048Z,1014.4
2017-09-30T11:19:33.513Z,1014.4
2017-09-30T11:20:35.043Z,1014.4
2017-09-30T11:21:36.571Z,1014.4
2017-09-30T11:22:38.091Z,1014.4
2017-09-30T11:23:39.651Z,1014.5
2017-09-30T11:24:41.145Z,1014.5
2017-09-30T11:25:42.678Z,1014.5
2017-09-30T11:26:44.200Z,1014.5
2017-09-30T11:27:45.769Z,1014.5
2017-09-30T11:28:47.283Z,1014.5
2017-09-30T11:29:48.821Z,1014.5
2017-09-30T11:30:50.321Z,1014.5
2017-09-30T11:31:51.880Z,1014.5
2017-09-30T11:32:53.435Z,1014.5
2017-09-30T11:33:54.962Z,1014.5
2017-09-30T11:34:56.461Z,1014.5
2017-09-30T11:35:58.041Z,1014.5
2017-09-30T11:36:59.566Z,1014.5
2017-09-30T11:38:01.072Z,1014.5
2017-09-30T11:39:02.651Z,1014.5
2017-09-30T11:40:04.186Z,1014.6
2017-09-30T11:41:05.734Z,1014.6
2017-09-30T11:42:07.274Z,1014.7
2017-09-30T11:43:08.839Z,1014.7
2017-09-30T11:44:10.349Z,1014.7
2017-09-30T11:45:11.920Z,1014.7
2017-09-30T11:46:13.444Z,1014.7
2017-09-30T11:47:14.982Z,1014.7
2017-09-30T11:48:16.578Z,1014.7
2017-09-30T11:49:18.115Z,1014.7
2017-09-30T11:50:19.634Z,1014.7
2017-09-30T11:51:21.189Z,1014.7
2017-09-30T11:52:22.756Z,1014.6
2017-09-30T11:53:24.304Z,1014.6
2017-09-30T11:54:25.818Z,1014.6
2017-09-30T11:55:27.386Z,1014.6
2017-09-30T11:56:28.902Z,1014.6
2017-09-30T11:57:30.467Z,1014.6
2017-09-30T11:58:31.991Z,1014.6
2017-09-30T11:59:33.519Z,1014.6
2017-09-30T12:00:35.054Z,1014.7
2017-09-30T12:01:36.682Z,1014.7
2017-09-30T12:02:38.221Z,1014.7
2017-09-30T12:03:39.785Z,1014.7
2017-09-30T12:04:41.357Z,1014.6
2017-09-30T12:05:42.917Z,1014.6
2017-09-30T12:06:44.413Z,1014.6
2017-09-30T12:07:45.987Z,1014.6
2017-09-30T12:08:47.514Z,1014.6
2017-09-30T12:09:49.061Z,1014.6
2017-09-30T12:10:50.568Z,1014.6
2017-09-30T12:11:52.077Z,1014.6
2017-09-30T12:12:53.572Z,1014.7
2017-09-30T12:13:55.146Z,1014.7
2017-09-30T12:14:56.733Z,1014.7
2017-09-30T12:15:58.223Z,1014.7
2017-09-30T12:16:59.747Z,1014.7
2017-09-30T12:18:01.273Z,1014.6
2017-09-30T12:19:02.816Z,1014.6
2017-09-30T12:20:04.386Z,1014.6
2017-09-30T12:21:05.966Z,1014.6
2017-09-30T12:22:07.471Z,1014.6
2017-09-30T12:23:09.014Z,1014.6
2017-09-30T12:24:10.553Z,1014.7
2017-09-30T12:25:12.139Z,1014.7
2017-09-30T12:26:13.637Z,1014.7
2017-09-30T12:27:15.181Z,1014.7
2017-09-30T12:28:16.755Z,1014.6
2017-09-30T12:29:18.291Z,1014.7
2017-09-30T12:30:19.801Z,1014.7
2017-09-30T12:31:21.323Z,1014.7
2017-09-30T12:32:22.867Z,1014.7
2017-09-30T12:33:24.401Z,1014.7
2017-09-30T12:34:25.919Z,1014.7
2017-09-30T12:35:27.441Z,1014.6
2017-09-30T12:36:28.998Z,1014.6
2017-09-30T12:37:30.517Z,1014.6
2017-09-30T12:38:32.029Z,1014.6
2017-09-30T12:39:33.535Z,1014.6
2017-09-30T12:40:35.052Z,1014.6
2017-09-30T12:41:36.560Z,1014.7
2017-09-30T12:42:38.140Z,1014.7
2017-09-30T12:43:39.641Z,1014.7
2017-09-30T12:44:41.177Z,1014.7
2017-09-30T12:45:42.755Z,1014.6
2017-09-30T12:46:44.299Z,1014.6
2017-09-30T12:47:45.822Z,1014.6
2017-09-30T12:48:47.392Z,1014.6
2017-09-30T12:49:48.922Z,1014.6
2017-09-30T12:50:50.480Z,1014.6
2017-09-30T12:51:52.024Z,1014.6
2017-09-30T12:52:53.631Z,1014.7
2017-09-30T12:53:55.169Z,1014.7
2017-09-30T12:54:56.695Z,1014.7
2017-09-30T12:55:58.189Z,1014.8
2017-09-30T12:56:59.660Z,1014.8
2017-09-30T12:58:01.116Z,1014.8
2017-09-30T12:59:02.598Z,1014.8
2017-09-30T13:00:04.065Z,1014.9